Flight Track Log - Related Links

Times and Time Zones

All times are in EDT time to prevent confusion due to time zone crossing. See the N800WW flight status page for this flight to view local times or setup timezone preferences in your user account.

Time Position Orientation Groundspeed Altitude Reporting Facility
EDT Latitude Longitude Course Direction KTS MPH feet Rate Location/Type
Thu 10:28:00 PM 32.6342 -114.6319 277° West 192 221 1,100  Level Los Angeles Center
Thu 10:28:55 PM 32.6397 -114.6836 277° West 215 247 4,200 3,512 Climbing Los Angeles Center
Thu 10:29:22 PM 32.6681 -114.6808 North 225 259 5,900 3,738 Climbing Los Angeles Center
Thu 10:29:56 PM 32.6953 -114.6611 31° Northeast 235 270 8,000 3,774 Climbing Los Angeles Center
Thu 10:30:24 PM 32.7208 -114.6381 37° Northeast 232 267 9,800 3,541 Climbing Los Angeles Center
Thu 10:30:57 PM 32.7531 -114.6153 31° Northeast 243 280 11,600 2,710 Climbing Los Angeles Center
Thu 10:31:26 PM 32.7686 -114.5881 56° Northeast 256 295 12,600 2,500 Climbing Los Angeles Center
Thu 10:31:57 PM 32.7708 -114.5192 88° East 304 350 14,100 2,226 Climbing Los Angeles Center
Thu 10:32:28 PM 32.7706 -114.4742 90° East 310 357 14,900 2,200 Climbing Los Angeles Center
Thu 10:32:57 PM 32.7708 -114.4078 90° East 341 392 16,300 2,226 Climbing Los Angeles Center
Thu 10:33:30 PM 32.7711 -114.3569 90° East 344 396 17,200 2,226 Climbing Los Angeles Center
Thu 10:33:59 PM 32.7733 -114.2878 88° East 366 421 18,600 2,323 Climbing Los Angeles Center
Thu 10:34:32 PM 32.7731 -114.2328 90° East 370 426 19,600 2,217 Climbing Los Angeles Center
Thu 10:35:31 PM 32.7753 -114.0917 89° East 377 434 22,000 1,686 Climbing Albuquerque Center
Thu 10:36:33 PM 32.7775 -113.9583 89° East 390 449 23,000 1,073 Climbing Albuquerque Center
Thu 10:37:34 PM 32.7953 -113.8203 81° East 405 466 24,200 1,317 Climbing Albuquerque Center
Thu 10:38:36 PM 32.8203 -113.6758 78° East 431 496 25,700 1,306 Climbing Albuquerque Center
Thu 10:39:38 PM 32.8406 -113.5297 81° East 443 510 26,900 634 Climbing Albuquerque Center
Thu 10:40:39 PM 32.8617 -113.3814 80° East 452 520 27,000 49 Climbing Albuquerque Center
Thu 10:41:41 PM 32.8817 -113.2389 80° East 441 507 27,000  Level Albuquerque Center
Thu 10:42:42 PM 32.9008 -113.0942 81° East 440 506 27,000  Level Albuquerque Center
Thu 10:43:44 PM 32.9247 -112.9200 81° East 442 509 27,000 -244 Level Albuquerque Center
Thu 10:44:45 PM 32.9439 -112.7758 81° East 440 506 26,500 -537 Descending Albuquerque Center
Thu 10:45:47 PM 32.9397 -112.6381 92° East 425 489 25,900 -919 Descending Albuquerque Center
Thu 10:46:49 PM 32.8964 -112.5169 113° Southeast 402 463 24,600 -1,268 Descending Albuquerque Center
Thu 10:47:50 PM 32.8517 -112.3978 114° Southeast 394 453 23,300 -1,268 Descending Albuquerque Center
Thu 10:48:52 PM 32.8036 -112.2756 115° Southeast 401 461 22,000 -1,355 Descending Albuquerque Center
Thu 10:49:54 PM 32.7522 -112.1403 114° Southeast 406 467 20,500 -1,366 Descending Albuquerque Center
Thu 10:50:55 PM 32.7050 -112.0189 115° Southeast 407 468 19,200 -1,279 Descending Albuquerque Center
Thu 10:51:56 PM 32.6592 -111.9017 115° Southeast 400 460 17,900 -1,252 Descending Albuquerque Center
Thu 10:52:50 PM 32.6150 -111.7944 116° Southeast 384 442 16,800 -1,187 Descending Albuquerque Center
Thu 10:53:27 PM 32.5872 -111.7261 116° Southeast 363 418 16,100 -1,029 Descending Albuquerque Center
Thu 10:54:00 PM 32.5742 -111.6858 111° Southeast 360 414 15,600 -1,200 Descending Albuquerque Center
Thu 10:54:27 PM 32.5392 -111.6300 127° Southeast 350 403 14,900 -1,082 Descending Albuquerque Center
Thu 10:55:01 PM 32.5206 -111.5936 121° Southeast 346 398 14,500 -1,180 Descending Albuquerque Center
Thu 10:55:28 PM 32.4875 -111.5378 125° Southeast 340 391 13,700 -1,452 Descending Albuquerque Center
Thu 10:56:03 PM 32.4542 -111.4864 128° Southeast 338 389 13,000 -1,180 Descending Albuquerque Center
Thu 10:56:29 PM 32.4253 -111.4583 141° Southeast 329 379 12,500 -1,180 Descending Albuquerque Center
Thu 10:57:04 PM 32.3925 -111.4150 132° Southeast 318 366 11,800 -1,200 Descending Albuquerque Center
Thu 10:57:29 PM 32.3664 -111.3858 137° Southeast 310 357 11,300 -1,161 Descending Albuquerque Center
Thu 10:58:06 PM 32.3356 -111.3464 133° Southeast 300 345 10,600 -1,180 Descending Albuquerque Center
Thu 10:58:30 PM 32.3108 -111.3197 138° Southeast 288 331 10,100 -1,161 Descending Albuquerque Center
Thu 10:59:08 PM 32.2806 -111.2831 134° Southeast 281 323 9,400 -1,200 Descending Albuquerque Center
Thu 10:59:30 PM 32.2564 -111.2589 140° Southeast 274 315 8,900 -1,180 Descending Albuquerque Center
Thu 11:00:09 PM 32.2269 -111.2222 134° Southeast 272 313 8,200 -1,279 Descending Albuquerque Center
Thu 11:00:31 PM 32.1986 -111.1936 139° Southeast 268 308 7,600 -1,258 Descending Albuquerque Center
Thu 11:01:11 PM 32.1733 -111.1644 136° Southeast 265 305 6,900 -1,377 Descending Albuquerque Center
Thu 11:01:32 PM 32.1494 -111.1389 138° Southeast 250 288 6,200 -1,082 Descending Albuquerque Center
Thu 11:02:12 PM 32.1269 -111.1056 129° Southeast 255 293 5,800 -700 Descending Albuquerque Center
Thu 11:02:32 PM 32.1064 -111.0825 136° Southeast 230 265 5,500 -677 Descending Albuquerque Center
Thu 11:03:14 PM 32.0875 -111.0506 125° Southeast 237 273 5,100 -689 Descending Albuquerque Center
Thu 11:03:33 PM 32.0694 -111.0244 129° Southeast 222 255 4,800 -885 Descending Albuquerque Center
Thu 11:04:15 PM 32.0483 -110.9789 119° Southeast 222 255 4,200 -600 Descending Albuquerque Center
Thu 11:04:33 PM 32.0386 -110.9650 130° Southeast 216 249 4,200 -608 Level Albuquerque Center
Thu 11:05:34 PM 32.0486 -110.9069 78° East 170 196 3,400 -541 Descending Albuquerque Center
Thu 11:06:35 PM 32.0819 -110.9028 North 139 160 3,100 -295 Descending Albuquerque Center

Login

Don't have an account? Register now (free) for customized features, flight alerts, and more!